createdAt,value
2018-10-19T00:00:39.485Z,34.33
2018-10-19T00:03:08.148Z,33.07
2018-10-19T00:05:36.746Z,37.87
2018-10-19T00:08:05.974Z,33.60
2018-10-19T00:10:45.467Z,35.03
2018-10-19T00:13:15.969Z,35.50
2018-10-19T00:15:44.629Z,35.07
2018-10-19T00:18:13.268Z,31.17
2018-10-19T00:20:42.021Z,35.10
2018-10-19T00:23:10.781Z,35.33
2018-10-19T00:25:39.379Z,33.37
2018-10-19T00:28:07.970Z,33.50
2018-10-19T00:30:36.554Z,34.53
2018-10-19T00:33:05.195Z,32.93
2018-10-19T00:35:33.768Z,36.07
2018-10-19T00:38:02.687Z,38.47
2018-10-19T00:40:31.341Z,38.70
2018-10-19T00:43:00.474Z,44.23
2018-10-19T00:45:34.741Z,45.43
2018-10-19T00:48:14.339Z,41.17
2018-10-19T00:50:43.297Z,43.43
2018-10-19T00:53:12.547Z,42.93
2018-10-19T00:55:41.268Z,42.93
2018-10-19T00:58:10.659Z,41.90
2018-10-19T01:00:40.374Z,40.87
2018-10-19T01:03:09.462Z,42.87
2018-10-19T01:05:38.961Z,38.43
2018-10-19T01:08:08.688Z,42.90
2018-10-19T01:10:37.353Z,43.33
2018-10-19T01:13:06.164Z,40.80
2018-10-19T01:15:34.808Z,40.87
2018-10-19T01:18:03.553Z,45.90
2018-10-19T01:20:32.125Z,43.57
2018-10-19T01:23:00.742Z,44.30
2018-10-19T01:25:29.336Z,43.70
2018-10-19T01:27:58.002Z,44.40
2018-10-19T01:30:26.676Z,43.73
2018-10-19T01:32:55.369Z,39.30
2018-10-19T01:35:23.985Z,43.47
2018-10-19T01:37:52.594Z,39.67
2018-10-19T01:40:21.188Z,40.37
2018-10-19T01:42:49.780Z,39.80
2018-10-19T01:45:18.448Z,35.57
2018-10-19T01:47:47.085Z,37.33
2018-10-19T01:50:15.673Z,41.97
2018-10-19T01:52:44.256Z,38.07
2018-10-19T01:55:12.835Z,38.17
2018-10-19T01:57:41.420Z,35.10
2018-10-19T02:00:10.103Z,44.27
2018-10-19T02:02:38.677Z,41.70
2018-10-19T02:05:07.505Z,35.93
2018-10-19T02:07:36.085Z,37.40
2018-10-19T02:10:05.788Z,39.50
2018-10-19T02:12:34.375Z,43.67
2018-10-19T02:15:03.076Z,45.50
2018-10-19T02:17:31.693Z,40.80
2018-10-19T02:20:00.313Z,42.83
2018-10-19T02:22:28.917Z,44.73
2018-10-19T02:24:57.539Z,44.40
2018-10-19T02:27:26.170Z,46.83
2018-10-19T02:29:54.739Z,45.87
2018-10-19T02:32:23.398Z,52.20
2018-10-19T02:34:51.997Z,48.13
2018-10-19T02:37:20.628Z,49.40
2018-10-19T02:39:49.241Z,51.40
2018-10-19T02:42:17.808Z,41.03
2018-10-19T02:44:46.453Z,41.60
2018-10-19T02:47:15.782Z,43.50
2018-10-19T02:49:44.296Z,42.70
2018-10-19T02:52:12.928Z,43.63
2018-10-19T02:54:41.565Z,44.40
2018-10-19T02:57:10.203Z,50.63
2018-10-19T02:59:38.811Z,50.70
2018-10-19T03:02:07.424Z,48.20
2018-10-19T03:04:36.034Z,46.93
2018-10-19T03:07:06.749Z,42.87
2018-10-19T03:09:35.366Z,46.03
2018-10-19T03:12:04.001Z,48.43
2018-10-19T03:14:32.592Z,52.03
2018-10-19T03:17:02.013Z,38.80
2018-10-19T03:19:30.704Z,40.33
2018-10-19T03:21:59.311Z,43.17
2018-10-19T03:24:27.956Z,40.43
2018-10-19T03:26:56.642Z,41.57
2018-10-19T03:29:26.176Z,35.17
2018-10-19T03:31:54.893Z,37.27
2018-10-19T03:34:23.493Z,38.63
2018-10-19T03:36:52.681Z,38.47
2018-10-19T03:39:21.289Z,39.03
2018-10-19T03:41:49.904Z,37.60
2018-10-19T03:44:18.510Z,42.13
2018-10-19T03:46:47.098Z,43.80
2018-10-19T03:49:15.810Z,40.00
2018-10-19T03:51:44.381Z,40.73
2018-10-19T03:54:13.048Z,39.93
2018-10-19T03:56:41.638Z,39.30
2018-10-19T03:59:10.332Z,40.40
2018-10-19T04:01:38.913Z,42.93
2018-10-19T04:04:07.518Z,39.83
2018-10-19T04:06:36.172Z,41.20
2018-10-19T04:09:07.898Z,46.30
2018-10-19T04:11:36.498Z,41.97
2018-10-19T04:14:05.797Z,42.87
2018-10-19T04:16:34.496Z,49.33
2018-10-19T04:19:03.253Z,45.07
2018-10-19T04:21:32.368Z,51.67
2018-10-19T04:24:01.184Z,49.47
2018-10-19T04:26:30.038Z,49.00
2018-10-19T04:28:58.814Z,53.60
2018-10-19T04:31:27.563Z,48.33
2018-10-19T04:33:56.357Z,48.13
2018-10-19T04:36:25.670Z,47.97
2018-10-19T04:38:54.427Z,47.83
2018-10-19T04:41:23.139Z,43.40
2018-10-19T04:43:51.831Z,41.93
2018-10-19T04:46:23.994Z,41.77
2018-10-19T04:48:52.783Z,45.17
2018-10-19T04:51:21.545Z,43.53
2018-10-19T04:53:50.402Z,43.40
2018-10-19T04:56:19.087Z,42.80
2018-10-19T04:58:53.322Z,46.70
2018-10-19T05:01:22.022Z,53.73
2018-10-19T05:03:51.116Z,46.10
2018-10-19T05:06:20.065Z,55.27
2018-10-19T05:08:49.150Z,47.97
2018-10-19T05:11:18.153Z,47.43
2018-10-19T05:13:46.999Z,55.87
2018-10-19T05:16:15.853Z,50.23
2018-10-19T05:18:44.579Z,50.90
2018-10-19T05:21:13.664Z,46.13
2018-10-19T05:23:42.381Z,43.77
2018-10-19T05:26:11.177Z,41.40
2018-10-19T05:28:40.374Z,42.17
2018-10-19T05:31:09.024Z,42.63
2018-10-19T05:33:39.497Z,40.90
2018-10-19T05:36:08.212Z,44.50
2018-10-19T05:38:36.975Z,39.40
2018-10-19T05:41:05.703Z,44.13
2018-10-19T05:43:34.525Z,43.17
2018-10-19T05:46:03.121Z,45.37
2018-10-19T05:48:31.818Z,44.03
2018-10-19T05:51:00.584Z,47.43
2018-10-19T05:53:29.297Z,43.53
2018-10-19T05:55:57.972Z,39.57
2018-10-19T05:58:26.709Z,38.77
2018-10-19T06:00:55.985Z,39.80
2018-10-19T06:03:24.697Z,35.97
2018-10-19T06:05:55.006Z,42.03
2018-10-19T06:08:23.712Z,42.20
2018-10-19T06:10:52.442Z,36.30
2018-10-19T06:13:21.124Z,36.90
2018-10-19T06:15:49.764Z,31.90
2018-10-19T06:18:18.516Z,31.97
2018-10-19T06:20:47.290Z,30.10
2018-10-19T06:23:16.066Z,31.00
2018-10-19T06:25:44.818Z,29.80
2018-10-19T06:28:13.438Z,37.97
2018-10-19T06:30:42.091Z,30.67
2018-10-19T06:33:10.866Z,25.67
2018-10-19T06:35:40.861Z,26.53
2018-10-19T06:38:09.511Z,27.43
2018-10-19T06:40:38.274Z,25.83
2018-10-19T06:43:06.913Z,26.00
2018-10-19T06:45:36.043Z,29.40
2018-10-19T06:48:05.213Z,22.10
2018-10-19T06:50:33.819Z,24.00
2018-10-19T06:53:02.929Z,25.03
2018-10-19T06:55:31.526Z,25.23
2018-10-19T06:58:00.284Z,25.27
2018-10-19T07:00:28.896Z,24.07
2018-10-19T07:02:57.788Z,25.87
2018-10-19T07:05:26.403Z,24.13
2018-10-19T07:07:54.972Z,23.30
2018-10-19T07:10:23.545Z,25.67
2018-10-19T07:12:52.176Z,24.57
2018-10-19T07:15:20.786Z,24.50
2018-10-19T07:17:49.313Z,23.53
2018-10-19T07:20:17.886Z,25.03
2018-10-19T07:22:46.458Z,24.97
2018-10-19T07:25:15.389Z,23.53
2018-10-19T07:27:43.959Z,23.93
2018-10-19T07:30:12.549Z,23.17
2018-10-19T07:32:41.204Z,24.67
2018-10-19T07:35:09.795Z,20.83
2018-10-19T07:37:38.557Z,20.97
2018-10-19T07:40:07.416Z,23.73
2018-10-19T07:42:36.021Z,24.10
2018-10-19T07:45:05.449Z,21.23
2018-10-19T07:47:34.107Z,23.73
2018-10-19T07:50:02.797Z,22.73
2018-10-19T07:52:31.376Z,21.35
2018-10-19T07:54:59.963Z,19.05
2018-10-19T07:57:28.537Z,19.77
2018-10-19T07:59:57.198Z,20.68
2018-10-19T08:02:25.732Z,24.02
2018-10-19T08:04:54.349Z,23.42
2018-10-19T08:07:22.855Z,22.87
2018-10-19T08:09:51.427Z,21.87
2018-10-19T08:12:20.039Z,21.00
2018-10-19T08:14:48.638Z,18.07
2018-10-19T08:17:17.301Z,22.98
2018-10-19T08:19:46.057Z,20.48
2018-10-19T08:22:14.663Z,21.52
2018-10-19T08:24:43.328Z,14.83
2018-10-19T08:27:11.982Z,15.08
2018-10-19T08:29:41.079Z,13.32
2018-10-19T08:32:09.825Z,14.93
2018-10-19T08:34:38.521Z,15.63
2018-10-19T08:37:07.117Z,19.75
2018-10-19T08:39:35.683Z,18.75
2018-10-19T08:42:04.884Z,14.93
2018-10-19T08:44:33.484Z,15.43
2018-10-19T08:47:02.126Z,17.87
2018-10-19T08:49:30.786Z,14.53
2018-10-19T08:51:59.611Z,18.70
2018-10-19T08:54:28.203Z,17.92
2018-10-19T08:56:56.846Z,19.90
2018-10-19T08:59:25.401Z,14.13
2018-10-19T09:01:54.058Z,15.10
2018-10-19T09:04:22.691Z,14.73
2018-10-19T09:06:51.281Z,14.10
2018-10-19T09:09:20.139Z,13.30
2018-10-19T09:11:48.784Z,19.52
2018-10-19T09:14:34.193Z,14.63
2018-10-19T09:17:02.881Z,16.55
2018-10-19T09:19:31.451Z,16.30
2018-10-19T09:22:00.108Z,14.30
2018-10-19T09:24:28.688Z,16.95
2018-10-19T09:26:57.368Z,15.93
2018-10-19T09:29:26.279Z,15.28
2018-10-19T09:31:54.921Z,16.52
2018-10-19T09:34:23.574Z,15.70
2018-10-19T09:36:52.296Z,16.10
2018-10-19T09:39:26.556Z,17.12
2018-10-19T09:41:55.271Z,14.78
2018-10-19T09:44:23.856Z,11.95
2018-10-19T09:46:52.424Z,11.12
2018-10-19T09:49:21.462Z,13.78
2018-10-19T09:51:49.996Z,12.82
2018-10-19T09:54:18.556Z,16.32
2018-10-19T09:56:47.081Z,12.80
2018-10-19T09:59:15.884Z,14.05
2018-10-19T10:01:44.415Z,13.55
2018-10-19T10:04:13.366Z,13.00
2018-10-19T10:06:47.666Z,16.42
2018-10-19T10:09:17.031Z,16.37
2018-10-19T10:11:45.661Z,14.07
2018-10-19T10:14:14.318Z,11.65
2018-10-19T10:16:42.911Z,10.85
2018-10-19T10:19:11.587Z,13.43
2018-10-19T10:21:45.579Z,16.12
2018-10-19T10:24:14.204Z,14.35
2018-10-19T10:26:42.891Z,11.20
2018-10-19T10:29:11.471Z,12.05
2018-10-19T10:31:40.009Z,10.93
2018-10-19T10:34:08.630Z,10.82
2018-10-19T10:36:37.169Z,14.33
2018-10-19T10:39:10.681Z,10.28
2018-10-19T10:41:39.271Z,10.85
2018-10-19T10:44:07.990Z,10.35
2018-10-19T10:46:36.718Z,13.68
2018-10-19T10:49:10.941Z,21.85
2018-10-19T10:51:39.471Z,12.60
2018-10-19T10:54:08.046Z,11.80
2018-10-19T10:56:36.623Z,8.53
2018-10-19T10:59:05.449Z,13.03
2018-10-19T11:01:33.990Z,11.90
2018-10-19T11:04:02.685Z,11.93
2018-10-19T11:06:31.348Z,9.48
2018-10-19T11:08:59.953Z,9.00
2018-10-19T11:11:28.573Z,10.18
2018-10-19T11:13:57.196Z,11.95
2018-10-19T11:16:25.833Z,8.45
2018-10-19T11:18:54.438Z,10.82
2018-10-19T11:21:23.009Z,9.23
2018-10-19T11:23:57.179Z,12.60
2018-10-19T11:26:25.775Z,7.35
2018-10-19T11:28:54.378Z,9.63
2018-10-19T11:31:23.001Z,9.30
2018-10-19T11:33:51.561Z,12.53
2018-10-19T11:36:20.179Z,11.57
2018-10-19T11:38:48.847Z,9.25
2018-10-19T11:41:17.545Z,9.30
2018-10-19T11:43:46.163Z,9.83
2018-10-19T11:46:14.901Z,10.28
2018-10-19T11:48:44.260Z,11.63
2018-10-19T11:51:12.874Z,10.13
2018-10-19T11:53:41.434Z,7.37
2018-10-19T11:56:10.041Z,10.95
2018-10-19T11:58:38.678Z,8.58
2018-10-19T12:01:07.220Z,11.38
2018-10-19T12:03:35.832Z,10.00
2018-10-19T12:06:04.621Z,10.98
2018-10-19T12:08:33.149Z,13.58
2018-10-19T12:11:01.679Z,8.60
2018-10-19T12:13:30.568Z,10.32
2018-10-19T12:15:59.178Z,9.75
2018-10-19T12:18:27.721Z,9.48
2018-10-19T12:20:56.283Z,11.00
2018-10-19T12:23:24.853Z,9.05
2018-10-19T12:25:58.835Z,11.10
2018-10-19T12:28:33.001Z,14.10
2018-10-19T12:31:01.684Z,10.43
2018-10-19T12:33:30.193Z,13.40
2018-10-19T12:35:58.753Z,9.53
2018-10-19T12:38:27.276Z,10.70
2018-10-19T12:40:55.803Z,11.43
2018-10-19T12:43:24.456Z,9.73
2018-10-19T12:46:36.343Z,10.05
2018-10-19T12:49:05.370Z,9.80
2018-10-19T12:51:34.388Z,12.85
2018-10-19T12:54:09.051Z,10.45
2018-10-19T12:56:37.609Z,9.70
2018-10-19T12:59:06.848Z,11.08
2018-10-19T13:01:35.395Z,11.80
2018-10-19T13:04:04.221Z,11.57
2018-10-19T13:06:32.836Z,10.82
2018-10-19T13:09:01.471Z,11.80
2018-10-19T13:11:29.999Z,9.43
2018-10-19T13:13:58.619Z,13.35
2018-10-19T13:16:27.192Z,10.58
2018-10-19T13:18:55.725Z,10.95
2018-10-19T13:21:24.295Z,11.08
2018-10-19T13:23:52.983Z,15.10
2018-10-19T13:26:22.244Z,9.90
2018-10-19T13:28:50.865Z,13.72
2018-10-19T13:31:20.235Z,10.63
2018-10-19T13:33:48.869Z,15.93
2018-10-19T13:36:17.524Z,16.12
2018-10-19T13:38:47.052Z,13.20
2018-10-19T13:41:15.714Z,10.05
2018-10-19T13:43:45.441Z,11.80
2018-10-19T13:46:14.028Z,10.40
2018-10-19T13:48:42.596Z,11.33
2018-10-19T13:51:11.358Z,12.73
2018-10-19T13:53:39.951Z,12.95
2018-10-19T13:56:08.556Z,12.03
2018-10-19T13:58:37.114Z,11.15
2018-10-19T14:01:06.770Z,9.65
2018-10-19T14:03:35.476Z,13.20
2018-10-19T14:06:04.084Z,12.23
2018-10-19T14:08:33.246Z,14.40
2018-10-19T14:11:01.893Z,13.00
2018-10-19T14:13:30.529Z,14.65
2018-10-19T14:15:59.077Z,10.45
2018-10-19T14:18:28.117Z,14.53
2018-10-19T14:20:56.724Z,10.78
2018-10-19T14:23:25.289Z,11.40
2018-10-19T14:25:53.891Z,14.18
2018-10-19T14:28:22.474Z,9.95
2018-10-19T14:30:52.063Z,9.23
2018-10-19T14:33:21.231Z,12.98
2018-10-19T14:35:49.676Z,13.22
2018-10-19T14:38:18.211Z,11.57
2018-10-19T14:40:46.811Z,17.20
2018-10-19T14:43:20.981Z,11.50
2018-10-19T14:45:50.581Z,12.10
2018-10-19T14:48:19.159Z,12.33
2018-10-19T14:50:47.846Z,13.95
2018-10-19T14:53:16.646Z,12.95
2018-10-19T14:55:45.169Z,13.88
2018-10-19T14:58:14.199Z,12.40
2018-10-19T15:00:42.823Z,17.02
2018-10-19T15:03:11.490Z,11.18
2018-10-19T15:05:40.010Z,10.32
2018-10-19T15:08:08.609Z,10.35
2018-10-19T15:10:38.358Z,10.65
2018-10-19T15:13:12.178Z,9.43
2018-10-19T15:15:40.758Z,12.63
2018-10-19T15:18:09.426Z,12.45
2018-10-19T15:20:38.057Z,16.67
2018-10-19T15:23:06.646Z,15.63
2018-10-19T15:25:35.279Z,11.55
2018-10-19T15:28:03.952Z,15.05
2018-10-19T15:30:32.538Z,18.42
2018-10-19T15:33:01.246Z,11.35
2018-10-19T15:35:29.815Z,13.30
2018-10-19T15:37:58.517Z,11.20
2018-10-19T15:40:27.078Z,16.23
2018-10-19T15:42:55.693Z,14.95
2018-10-19T15:45:24.390Z,11.85
2018-10-19T15:47:52.983Z,9.13
2018-10-19T15:50:21.615Z,14.43
2018-10-19T15:52:50.773Z,15.83
2018-10-19T15:55:19.315Z,24.32
2018-10-19T15:57:47.885Z,17.50
2018-10-19T16:00:25.736Z,19.75
2018-10-19T16:02:54.630Z,15.90
2018-10-19T16:05:23.348Z,14.80
2018-10-19T16:07:51.971Z,18.07
2018-10-19T16:13:21.233Z,19.48
2018-10-19T16:15:49.797Z,13.50
2018-10-19T16:18:26.668Z,16.83
2018-10-19T16:30:21.535Z,11.60
2018-10-19T16:35:50.153Z,10.23
2018-10-19T16:41:19.233Z,14.73
2018-10-19T16:55:53.787Z,20.50
2018-10-19T16:58:22.359Z,14.40
2018-10-19T17:03:58.652Z,15.70
2018-10-19T17:06:27.285Z,18.40
2018-10-19T17:14:55.716Z,19.63
2018-10-19T17:20:24.546Z,17.20
2018-10-19T17:32:11.056Z,106.33
2018-10-19T17:37:40.794Z,24.97
2018-10-19T17:40:25.529Z,115.40
2018-10-19T17:42:55.761Z,21.00
2018-10-19T17:48:24.598Z,21.57
2018-10-19T17:50:53.186Z,20.27
2018-10-19T17:53:28.289Z,26.97
2018-10-19T17:55:56.837Z,23.40
2018-10-19T17:58:26.644Z,20.10
2018-10-19T18:04:20.462Z,20.27
2018-10-19T18:09:49.317Z,18.90
2018-10-19T18:15:26.624Z,25.00
2018-10-19T18:17:55.251Z,22.37
2018-10-19T18:20:27.323Z,21.33
2018-10-19T18:29:16.264Z,31.30
2018-10-19T18:34:45.652Z,29.20
2018-10-19T18:43:14.589Z,29.73
2018-10-19T18:45:43.193Z,26.80
2018-10-19T18:57:29.121Z,29.30
2018-10-19T19:02:57.378Z,30.87
2018-10-19T19:11:26.103Z,33.10
2018-10-19T19:13:54.672Z,32.80
2018-10-19T19:16:28.610Z,34.03
2018-10-19T19:21:57.649Z,36.80
2018-10-19T19:24:38.141Z,36.53
2018-10-19T19:33:14.683Z,37.10
2018-10-19T19:51:27.291Z,44.53
2018-10-19T19:57:21.101Z,37.77
2018-10-19T20:00:02.051Z,39.17
2018-10-19T20:02:30.651Z,43.90
2018-10-19T20:04:59.216Z,47.60
2018-10-19T20:07:28.871Z,42.67
2018-10-19T20:12:57.301Z,42.67
2018-10-19T20:15:38.350Z,42.47
2018-10-19T20:18:06.980Z,46.30
2018-10-19T20:29:39.946Z,56.27
2018-10-19T20:32:25.219Z,54.33
2018-10-19T20:35:00.225Z,55.80
2018-10-19T20:37:28.907Z,52.90
2018-10-19T20:39:57.671Z,51.57
2018-10-19T20:48:26.761Z,56.93
2018-10-19T20:59:57.559Z,54.93
2018-10-19T21:11:40.192Z,56.90
2018-10-19T21:20:34.481Z,59.93
2018-10-19T21:26:24.097Z,57.40
2018-10-19T21:37:52.991Z,61.10
2018-10-19T21:40:21.635Z,59.67
2018-10-19T21:57:54.753Z,60.90
2018-10-19T22:00:28.961Z,66.73
2018-10-19T22:02:57.577Z,65.07
2018-10-19T22:05:26.428Z,56.53
2018-10-19T22:13:55.656Z,62.63
2018-10-19T22:19:24.218Z,56.53
2018-10-19T22:24:53.384Z,53.77
2018-10-19T22:27:47.175Z,58.17
2018-10-19T22:33:22.133Z,64.13
2018-10-19T22:47:51.483Z,61.57
2018-10-19T22:56:20.180Z,68.37
2018-10-19T22:59:14.144Z,61.10
2018-10-19T23:02:07.540Z,64.23
2018-10-19T23:16:39.161Z,66.77
2018-10-19T23:19:26.608Z,68.13
2018-10-19T23:40:09.003Z,73.20
2018-10-19T23:54:51.755Z,61.50
2018-10-19T23:57:21.326Z,55.67
